sensor_id;sensor_type;location;lat;lon;timestamp;P1;durP1;ratioP1;P2;durP2;ratioP2
25511;SDS011;13414;44.534;18.700;2023-01-23T00:01:24;23.33;;;14.48;;
25511;SDS011;13414;44.534;18.700;2023-01-23T00:03:55;23.50;;;15.82;;
25511;SDS011;13414;44.534;18.700;2023-01-23T00:06:23;33.10;;;19.08;;
25511;SDS011;13414;44.534;18.700;2023-01-23T00:08:51;37.67;;;23.95;;
25511;SDS011;13414;44.534;18.700;2023-01-23T00:11:21;39.53;;;25.33;;
25511;SDS011;13414;44.534;18.700;2023-01-23T00:13:49;45.25;;;27.00;;
25511;SDS011;13414;44.534;18.700;2023-01-23T00:16:17;52.47;;;28.67;;
25511;SDS011;13414;44.534;18.700;2023-01-23T00:18:46;47.88;;;28.15;;
25511;SDS011;13414;44.534;18.700;2023-01-23T00:21:16;34.28;;;22.10;;
25511;SDS011;13414;44.534;18.700;2023-01-23T00:23:46;37.90;;;22.33;;
25511;SDS011;13414;44.534;18.700;2023-01-23T00:26:14;31.05;;;20.20;;
25511;SDS011;13414;44.534;18.700;2023-01-23T00:28:44;32.30;;;20.92;;
25511;SDS011;13414;44.534;18.700;2023-01-23T00:31:16;36.00;;;21.50;;
25511;SDS011;13414;44.534;18.700;2023-01-23T00:33:51;42.78;;;24.02;;
25511;SDS011;13414;44.534;18.700;2023-01-23T00:36:22;55.63;;;33.30;;
25511;SDS011;13414;44.534;18.700;2023-01-23T00:38:53;64.18;;;40.25;;
25511;SDS011;13414;44.534;18.700;2023-01-23T00:41:21;63.05;;;37.17;;
25511;SDS011;13414;44.534;18.700;2023-01-23T00:43:49;59.28;;;33.53;;
25511;SDS011;13414;44.534;18.700;2023-01-23T00:46:17;49.53;;;30.15;;
25511;SDS011;13414;44.534;18.700;2023-01-23T00:48:45;53.60;;;31.15;;
25511;SDS011;13414;44.534;18.700;2023-01-23T00:51:13;46.35;;;29.00;;
25511;SDS011;13414;44.534;18.700;2023-01-23T00:53:42;46.47;;;27.50;;
25511;SDS011;13414;44.534;18.700;2023-01-23T00:56:10;38.25;;;23.63;;
25511;SDS011;13414;44.534;18.700;2023-01-23T00:58:38;33.55;;;20.92;;
25511;SDS011;13414;44.534;18.700;2023-01-23T01:01:06;34.63;;;22.17;;
25511;SDS011;13414;44.534;18.700;2023-01-23T01:03:35;34.05;;;21.73;;
25511;SDS011;13414;44.534;18.700;2023-01-23T01:06:02;45.03;;;29.27;;
25511;SDS011;13414;44.534;18.700;2023-01-23T01:08:30;49.83;;;30.08;;
25511;SDS011;13414;44.534;18.700;2023-01-23T01:10:59;49.80;;;30.73;;
25511;SDS011;13414;44.534;18.700;2023-01-23T01:13:27;43.88;;;29.13;;
25511;SDS011;13414;44.534;18.700;2023-01-23T01:15:55;43.45;;;28.70;;
25511;SDS011;13414;44.534;18.700;2023-01-23T01:18:27;40.45;;;27.88;;
25511;SDS011;13414;44.534;18.700;2023-01-23T01:20:54;44.88;;;28.70;;
25511;SDS011;13414;44.534;18.700;2023-01-23T01:23:22;37.70;;;25.50;;
25511;SDS011;13414;44.534;18.700;2023-01-23T01:25:50;43.05;;;29.00;;
25511;SDS011;13414;44.534;18.700;2023-01-23T01:28:21;49.38;;;33.72;;
25511;SDS011;13414;44.534;18.700;2023-01-23T01:30:48;41.90;;;29.85;;
25511;SDS011;13414;44.534;18.700;2023-01-23T01:33:15;42.00;;;30.33;;
25511;SDS011;13414;44.534;18.700;2023-01-23T01:35:43;53.60;;;32.47;;
25511;SDS011;13414;44.534;18.700;2023-01-23T01:38:11;45.58;;;31.05;;
25511;SDS011;13414;44.534;18.700;2023-01-23T01:40:38;43.75;;;31.85;;
25511;SDS011;13414;44.534;18.700;2023-01-23T01:43:06;40.95;;;29.00;;
25511;SDS011;13414;44.534;18.700;2023-01-23T01:46:02;37.03;;;26.38;;
25511;SDS011;13414;44.534;18.700;2023-01-23T01:48:37;28.02;;;20.25;;
25511;SDS011;13414;44.534;18.700;2023-01-23T01:51:16;31.67;;;20.40;;
25511;SDS011;13414;44.534;18.700;2023-01-23T01:53:49;26.88;;;18.60;;
25511;SDS011;13414;44.534;18.700;2023-01-23T01:56:21;30.45;;;17.88;;
25511;SDS011;13414;44.534;18.700;2023-01-23T01:58:49;30.35;;;18.42;;
25511;SDS011;13414;44.534;18.700;2023-01-23T02:01:20;26.02;;;15.68;;
25511;SDS011;13414;44.534;18.700;2023-01-23T02:03:48;24.45;;;16.75;;
25511;SDS011;13414;44.534;18.700;2023-01-23T02:06:17;39.83;;;21.35;;
25511;SDS011;13414;44.534;18.700;2023-01-23T02:08:46;42.33;;;25.77;;
25511;SDS011;13414;44.534;18.700;2023-01-23T02:11:18;35.53;;;21.98;;
25511;SDS011;13414;44.534;18.700;2023-01-23T02:13:47;30.02;;;17.20;;
25511;SDS011;13414;44.534;18.700;2023-01-23T02:16:16;27.08;;;16.42;;
25511;SDS011;13414;44.534;18.700;2023-01-23T02:18:49;20.58;;;12.23;;
25511;SDS011;13414;44.534;18.700;2023-01-23T02:21:21;23.35;;;14.60;;
25511;SDS011;13414;44.534;18.700;2023-01-23T02:23:57;26.42;;;16.73;;
25511;SDS011;13414;44.534;18.700;2023-01-23T02:26:39;18.95;;;12.48;;
25511;SDS011;13414;44.534;18.700;2023-01-23T02:29:09;23.60;;;13.50;;
25511;SDS011;13414;44.534;18.700;2023-01-23T02:31:44;18.02;;;10.60;;
25511;SDS011;13414;44.534;18.700;2023-01-23T02:34:13;25.27;;;17.00;;
25511;SDS011;13414;44.534;18.700;2023-01-23T02:36:41;32.72;;;20.58;;
25511;SDS011;13414;44.534;18.700;2023-01-23T02:39:13;32.72;;;21.77;;
25511;SDS011;13414;44.534;18.700;2023-01-23T02:41:47;38.78;;;25.83;;
25511;SDS011;13414;44.534;18.700;2023-01-23T02:44:17;37.78;;;23.98;;
25511;SDS011;13414;44.534;18.700;2023-01-23T02:46:54;39.75;;;24.10;;
25511;SDS011;13414;44.534;18.700;2023-01-23T02:49:24;37.95;;;24.85;;
25511;SDS011;13414;44.534;18.700;2023-01-23T02:51:52;37.28;;;23.40;;
25511;SDS011;13414;44.534;18.700;2023-01-23T02:54:22;38.60;;;24.50;;
25511;SDS011;13414;44.534;18.700;2023-01-23T02:56:52;38.28;;;23.92;;
25511;SDS011;13414;44.534;18.700;2023-01-23T02:59:22;32.58;;;20.52;;
25511;SDS011;13414;44.534;18.700;2023-01-23T03:02:07;29.45;;;19.17;;
25511;SDS011;13414;44.534;18.700;2023-01-23T03:04:35;39.30;;;22.98;;
25511;SDS011;13414;44.534;18.700;2023-01-23T03:07:02;32.90;;;21.52;;
25511;SDS011;13414;44.534;18.700;2023-01-23T03:09:30;36.95;;;21.90;;
25511;SDS011;13414;44.534;18.700;2023-01-23T03:11:59;26.67;;;17.60;;
25511;SDS011;13414;44.534;18.700;2023-01-23T03:14:27;29.30;;;17.58;;
25511;SDS011;13414;44.534;18.700;2023-01-23T03:16:57;29.33;;;19.02;;
25511;SDS011;13414;44.534;18.700;2023-01-23T03:19:29;32.20;;;19.70;;
25511;SDS011;13414;44.534;18.700;2023-01-23T03:21:57;32.35;;;18.67;;
25511;SDS011;13414;44.534;18.700;2023-01-23T03:24:25;28.95;;;19.38;;
25511;SDS011;13414;44.534;18.700;2023-01-23T03:26:52;37.42;;;23.23;;
25511;SDS011;13414;44.534;18.700;2023-01-23T03:29:25;42.97;;;26.95;;
25511;SDS011;13414;44.534;18.700;2023-01-23T03:32:13;37.78;;;24.48;;
25511;SDS011;13414;44.534;18.700;2023-01-23T03:34:43;37.90;;;23.42;;
25511;SDS011;13414;44.534;18.700;2023-01-23T03:37:11;33.88;;;22.38;;
25511;SDS011;13414;44.534;18.700;2023-01-23T03:39:43;37.97;;;23.55;;
25511;SDS011;13414;44.534;18.700;2023-01-23T03:42:29;35.22;;;22.83;;
25511;SDS011;13414;44.534;18.700;2023-01-23T03:45:02;40.83;;;25.38;;
25511;SDS011;13414;44.534;18.700;2023-01-23T03:47:33;45.15;;;27.95;;
25511;SDS011;13414;44.534;18.700;2023-01-23T03:50:01;45.97;;;27.20;;
25511;SDS011;13414;44.534;18.700;2023-01-23T03:52:34;43.53;;;26.33;;
25511;SDS011;13414;44.534;18.700;2023-01-23T03:55:02;42.08;;;27.20;;
25511;SDS011;13414;44.534;18.700;2023-01-23T03:57:32;54.55;;;31.13;;
25511;SDS011;13414;44.534;18.700;2023-01-23T04:00:11;93.00;;;50.30;;
25511;SDS011;13414;44.534;18.700;2023-01-23T04:02:46;88.03;;;54.60;;
25511;SDS011;13414;44.534;18.700;2023-01-23T04:05:14;89.00;;;55.78;;
25511;SDS011;13414;44.534;18.700;2023-01-23T04:07:43;83.70;;;53.33;;
25511;SDS011;13414;44.534;18.700;2023-01-23T04:10:12;94.22;;;55.65;;
25511;SDS011;13414;44.534;18.700;2023-01-23T04:12:41;93.15;;;57.13;;
25511;SDS011;13414;44.534;18.700;2023-01-23T04:15:10;83.22;;;52.65;;
25511;SDS011;13414;44.534;18.700;2023-01-23T04:17:40;92.55;;;52.17;;
25511;SDS011;13414;44.534;18.700;2023-01-23T04:20:10;87.97;;;57.25;;
25511;SDS011;13414;44.534;18.700;2023-01-23T04:22:40;96.63;;;59.08;;
25511;SDS011;13414;44.534;18.700;2023-01-23T04:25:08;77.18;;;48.33;;
25511;SDS011;13414;44.534;18.700;2023-01-23T04:27:37;81.43;;;45.15;;
25511;SDS011;13414;44.534;18.700;2023-01-23T04:30:07;74.20;;;42.03;;
25511;SDS011;13414;44.534;18.700;2023-01-23T04:32:37;71.30;;;43.53;;
25511;SDS011;13414;44.534;18.700;2023-01-23T04:35:05;75.03;;;45.13;;
25511;SDS011;13414;44.534;18.700;2023-01-23T04:37:35;65.32;;;39.42;;
25511;SDS011;13414;44.534;18.700;2023-01-23T04:40:03;72.43;;;41.17;;
25511;SDS011;13414;44.534;18.700;2023-01-23T04:42:41;66.63;;;40.72;;
25511;SDS011;13414;44.534;18.700;2023-01-23T04:45:17;67.05;;;39.67;;
25511;SDS011;13414;44.534;18.700;2023-01-23T04:48:18;68.50;;;38.25;;
25511;SDS011;13414;44.534;18.700;2023-01-23T04:50:46;66.50;;;37.78;;
25511;SDS011;13414;44.534;18.700;2023-01-23T04:53:14;66.05;;;36.92;;
25511;SDS011;13414;44.534;18.700;2023-01-23T04:55:45;67.72;;;40.47;;
25511;SDS011;13414;44.534;18.700;2023-01-23T04:58:15;66.32;;;38.50;;
25511;SDS011;13414;44.534;18.700;2023-01-23T05:00:43;66.30;;;40.28;;
25511;SDS011;13414;44.534;18.700;2023-01-23T05:03:12;82.03;;;48.30;;
25511;SDS011;13414;44.534;18.700;2023-01-23T05:05:46;77.60;;;51.28;;
25511;SDS011;13414;44.534;18.700;2023-01-23T05:08:14;85.50;;;51.83;;
25511;SDS011;13414;44.534;18.700;2023-01-23T05:10:48;74.63;;;47.85;;
25511;SDS011;13414;44.534;18.700;2023-01-23T05:13:17;74.38;;;46.55;;
25511;SDS011;13414;44.534;18.700;2023-01-23T05:15:46;77.95;;;47.63;;
25511;SDS011;13414;44.534;18.700;2023-01-23T05:18:15;80.47;;;47.80;;
25511;SDS011;13414;44.534;18.700;2023-01-23T05:20:45;76.15;;;45.50;;
25511;SDS011;13414;44.534;18.700;2023-01-23T05:23:13;73.95;;;43.28;;
25511;SDS011;13414;44.534;18.700;2023-01-23T05:25:48;73.68;;;42.60;;
25511;SDS011;13414;44.534;18.700;2023-01-23T05:31:13;65.45;;;36.35;;
25511;SDS011;13414;44.534;18.700;2023-01-23T05:33:52;61.30;;;37.08;;
25511;SDS011;13414;44.534;18.700;2023-01-23T05:36:21;66.25;;;36.10;;
25511;SDS011;13414;44.534;18.700;2023-01-23T05:38:48;62.10;;;37.40;;
25511;SDS011;13414;44.534;18.700;2023-01-23T05:41:17;62.08;;;37.72;;
25511;SDS011;13414;44.534;18.700;2023-01-23T05:44:07;64.25;;;33.83;;
25511;SDS011;13414;44.534;18.700;2023-01-23T05:46:47;64.15;;;39.22;;
25511;SDS011;13414;44.534;18.700;2023-01-23T05:49:14;64.18;;;37.17;;
25511;SDS011;13414;44.534;18.700;2023-01-23T05:51:43;65.72;;;36.55;;
25511;SDS011;13414;44.534;18.700;2023-01-23T05:54:12;60.72;;;37.17;;
25511;SDS011;13414;44.534;18.700;2023-01-23T05:56:43;66.25;;;36.92;;
25511;SDS011;13414;44.534;18.700;2023-01-23T06:02:15;61.75;;;38.33;;
25511;SDS011;13414;44.534;18.700;2023-01-23T06:04:45;77.65;;;47.45;;
25511;SDS011;13414;44.534;18.700;2023-01-23T06:07:24;67.82;;;44.70;;
25511;SDS011;13414;44.534;18.700;2023-01-23T06:09:55;68.47;;;40.83;;
25511;SDS011;13414;44.534;18.700;2023-01-23T06:12:24;83.68;;;47.05;;
25511;SDS011;13414;44.534;18.700;2023-01-23T06:14:51;127.25;;;72.45;;
25511;SDS011;13414;44.534;18.700;2023-01-23T06:17:19;105.50;;;62.00;;
25511;SDS011;13414;44.534;18.700;2023-01-23T06:19:47;66.43;;;38.97;;
25511;SDS011;13414;44.534;18.700;2023-01-23T06:22:15;84.55;;;48.58;;
25511;SDS011;13414;44.534;18.700;2023-01-23T06:25:08;158.82;;;78.88;;
25511;SDS011;13414;44.534;18.700;2023-01-23T06:27:36;160.60;;;80.80;;
25511;SDS011;13414;44.534;18.700;2023-01-23T06:30:07;178.18;;;91.45;;
25511;SDS011;13414;44.534;18.700;2023-01-23T06:32:39;186.07;;;92.95;;
25511;SDS011;13414;44.534;18.700;2023-01-23T06:35:08;194.25;;;98.18;;
25511;SDS011;13414;44.534;18.700;2023-01-23T06:37:56;216.73;;;101.00;;
25511;SDS011;13414;44.534;18.700;2023-01-23T06:40:28;218.13;;;105.15;;
25511;SDS011;13414;44.534;18.700;2023-01-23T06:43:21;203.85;;;105.80;;
25511;SDS011;13414;44.534;18.700;2023-01-23T06:45:50;207.02;;;109.53;;
25511;SDS011;13414;44.534;18.700;2023-01-23T06:48:18;202.90;;;108.10;;
25511;SDS011;13414;44.534;18.700;2023-01-23T06:50:47;206.80;;;110.47;;
25511;SDS011;13414;44.534;18.700;2023-01-23T06:53:15;212.30;;;111.88;;
25511;SDS011;13414;44.534;18.700;2023-01-23T06:55:47;206.43;;;109.65;;
25511;SDS011;13414;44.534;18.700;2023-01-23T06:58:16;189.85;;;101.53;;
25511;SDS011;13414;44.534;18.700;2023-01-23T07:00:45;234.50;;;120.20;;
25511;SDS011;13414;44.534;18.700;2023-01-23T07:03:33;202.25;;;105.07;;
25511;SDS011;13414;44.534;18.700;2023-01-23T07:06:01;235.68;;;123.22;;
25511;SDS011;13414;44.534;18.700;2023-01-23T07:08:31;237.23;;;122.05;;
25511;SDS011;13414;44.534;18.700;2023-01-23T07:11:00;103.43;;;60.90;;
25511;SDS011;13414;44.534;18.700;2023-01-23T07:13:28;103.57;;;62.33;;
25511;SDS011;13414;44.534;18.700;2023-01-23T07:15:56;106.10;;;61.65;;
25511;SDS011;13414;44.534;18.700;2023-01-23T07:18:24;200.57;;;108.60;;
25511;SDS011;13414;44.534;18.700;2023-01-23T07:20:53;203.07;;;106.70;;
25511;SDS011;13414;44.534;18.700;2023-01-23T07:23:30;184.38;;;97.18;;
25511;SDS011;13414;44.534;18.700;2023-01-23T07:26:01;174.13;;;92.47;;
25511;SDS011;13414;44.534;18.700;2023-01-23T07:28:33;195.77;;;103.70;;
25511;SDS011;13414;44.534;18.700;2023-01-23T07:31:01;183.52;;;98.25;;
25511;SDS011;13414;44.534;18.700;2023-01-23T07:33:30;177.57;;;92.25;;
25511;SDS011;13414;44.534;18.700;2023-01-23T07:35:59;188.85;;;97.47;;
25511;SDS011;13414;44.534;18.700;2023-01-23T07:38:30;204.55;;;103.03;;
25511;SDS011;13414;44.534;18.700;2023-01-23T07:40:58;175.80;;;94.55;;
25511;SDS011;13414;44.534;18.700;2023-01-23T07:43:31;166.70;;;90.40;;
25511;SDS011;13414;44.534;18.700;2023-01-23T07:46:13;134.48;;;76.60;;
25511;SDS011;13414;44.534;18.700;2023-01-23T07:48:57;149.13;;;84.65;;
25511;SDS011;13414;44.534;18.700;2023-01-23T07:51:26;214.60;;;107.60;;
25511;SDS011;13414;44.534;18.700;2023-01-23T07:53:53;230.52;;;126.35;;
25511;SDS011;13414;44.534;18.700;2023-01-23T07:56:21;245.35;;;131.45;;
25511;SDS011;13414;44.534;18.700;2023-01-23T07:58:50;222.98;;;122.75;;
25511;SDS011;13414;44.534;18.700;2023-01-23T08:01:18;221.77;;;117.22;;
25511;SDS011;13414;44.534;18.700;2023-01-23T08:03:51;241.27;;;132.32;;
25511;SDS011;13414;44.534;18.700;2023-01-23T08:06:22;228.75;;;127.53;;
25511;SDS011;13414;44.534;18.700;2023-01-23T08:08:49;229.82;;;129.38;;
25511;SDS011;13414;44.534;18.700;2023-01-23T08:11:17;229.23;;;127.82;;
25511;SDS011;13414;44.534;18.700;2023-01-23T08:13:49;218.73;;;124.03;;
25511;SDS011;13414;44.534;18.700;2023-01-23T08:16:22;238.48;;;135.57;;
25511;SDS011;13414;44.534;18.700;2023-01-23T08:18:50;245.95;;;136.10;;
25511;SDS011;13414;44.534;18.700;2023-01-23T08:21:21;229.45;;;133.65;;
25511;SDS011;13414;44.534;18.700;2023-01-23T08:23:50;226.15;;;134.77;;
25511;SDS011;13414;44.534;18.700;2023-01-23T08:26:18;216.45;;;130.00;;
25511;SDS011;13414;44.534;18.700;2023-01-23T08:28:46;218.07;;;131.80;;
25511;SDS011;13414;44.534;18.700;2023-01-23T08:31:15;235.13;;;131.65;;
25511;SDS011;13414;44.534;18.700;2023-01-23T08:33:43;226.00;;;133.43;;
25511;SDS011;13414;44.534;18.700;2023-01-23T08:36:11;174.45;;;102.53;;
25511;SDS011;13414;44.534;18.700;2023-01-23T08:38:39;183.75;;;107.45;;
25511;SDS011;13414;44.534;18.700;2023-01-23T08:41:10;189.73;;;107.03;;
25511;SDS011;13414;44.534;18.700;2023-01-23T08:43:38;180.27;;;107.57;;
25511;SDS011;13414;44.534;18.700;2023-01-23T08:46:06;171.88;;;104.60;;
25511;SDS011;13414;44.534;18.700;2023-01-23T08:48:36;189.35;;;113.45;;
25511;SDS011;13414;44.534;18.700;2023-01-23T08:51:04;195.90;;;117.35;;
25511;SDS011;13414;44.534;18.700;2023-01-23T08:53:32;225.05;;;126.70;;
25511;SDS011;13414;44.534;18.700;2023-01-23T08:56:01;227.50;;;128.30;;
25511;SDS011;13414;44.534;18.700;2023-01-23T08:58:30;184.30;;;110.18;;
25511;SDS011;13414;44.534;18.700;2023-01-23T09:00:58;208.38;;;119.63;;
25511;SDS011;13414;44.534;18.700;2023-01-23T09:03:26;219.88;;;124.85;;
25511;SDS011;13414;44.534;18.700;2023-01-23T09:06:00;174.70;;;96.97;;
25511;SDS011;13414;44.534;18.700;2023-01-23T09:08:29;167.40;;;87.53;;
25511;SDS011;13414;44.534;18.700;2023-01-23T09:10:59;159.82;;;87.30;;
25511;SDS011;13414;44.534;18.700;2023-01-23T09:13:27;156.85;;;84.07;;
25511;SDS011;13414;44.534;18.700;2023-01-23T09:15:55;163.05;;;87.07;;
25511;SDS011;13414;44.534;18.700;2023-01-23T09:18:23;163.52;;;89.88;;
25511;SDS011;13414;44.534;18.700;2023-01-23T09:20:51;171.13;;;92.72;;
25511;SDS011;13414;44.534;18.700;2023-01-23T09:23:22;178.02;;;95.82;;
25511;SDS011;13414;44.534;18.700;2023-01-23T09:25:50;150.95;;;86.53;;
25511;SDS011;13414;44.534;18.700;2023-01-23T09:28:18;145.57;;;80.88;;
25511;SDS011;13414;44.534;18.700;2023-01-23T09:30:46;146.45;;;84.22;;
25511;SDS011;13414;44.534;18.700;2023-01-23T09:33:13;156.90;;;94.38;;
25511;SDS011;13414;44.534;18.700;2023-01-23T09:35:41;164.95;;;97.53;;
25511;SDS011;13414;44.534;18.700;2023-01-23T09:38:12;157.95;;;94.55;;
25511;SDS011;13414;44.534;18.700;2023-01-23T09:40:50;148.80;;;90.18;;
25511;SDS011;13414;44.534;18.700;2023-01-23T09:43:21;132.93;;;85.53;;
25511;SDS011;13414;44.534;18.700;2023-01-23T09:45:57;130.65;;;86.78;;
25511;SDS011;13414;44.534;18.700;2023-01-23T09:48:38;158.32;;;105.70;;
25511;SDS011;13414;44.534;18.700;2023-01-23T09:51:11;165.90;;;113.45;;
25511;SDS011;13414;44.534;18.700;2023-01-23T09:53:41;167.75;;;108.53;;
25511;SDS011;13414;44.534;18.700;2023-01-23T09:56:16;157.98;;;107.57;;
25511;SDS011;13414;44.534;18.700;2023-01-23T09:58:55;150.10;;;93.70;;
25511;SDS011;13414;44.534;18.700;2023-01-23T10:01:27;128.32;;;79.88;;
25511;SDS011;13414;44.534;18.700;2023-01-23T10:03:56;137.30;;;84.35;;
25511;SDS011;13414;44.534;18.700;2023-01-23T10:06:25;149.98;;;90.18;;
25511;SDS011;13414;44.534;18.700;2023-01-23T10:09:02;138.60;;;86.57;;
25511;SDS011;13414;44.534;18.700;2023-01-23T10:12:00;126.40;;;78.32;;
25511;SDS011;13414;44.534;18.700;2023-01-23T10:14:53;142.98;;;87.00;;
25511;SDS011;13414;44.534;18.700;2023-01-23T10:17:32;153.32;;;93.65;;
25511;SDS011;13414;44.534;18.700;2023-01-23T10:20:16;159.13;;;98.32;;
25511;SDS011;13414;44.534;18.700;2023-01-23T10:22:57;152.90;;;94.50;;
25511;SDS011;13414;44.534;18.700;2023-01-23T10:25:34;133.48;;;84.68;;
25511;SDS011;13414;44.534;18.700;2023-01-23T10:28:15;132.18;;;80.88;;
25511;SDS011;13414;44.534;18.700;2023-01-23T10:30:54;144.80;;;89.15;;
25511;SDS011;13414;44.534;18.700;2023-01-23T10:33:27;134.30;;;86.28;;
25511;SDS011;13414;44.534;18.700;2023-01-23T10:38:32;143.95;;;89.68;;
25511;SDS011;13414;44.534;18.700;2023-01-23T10:41:07;142.60;;;92.22;;
25511;SDS011;13414;44.534;18.700;2023-01-23T10:43:46;141.70;;;87.28;;
25511;SDS011;13414;44.534;18.700;2023-01-23T10:46:16;138.15;;;89.82;;
25511;SDS011;13414;44.534;18.700;2023-01-23T10:48:47;149.65;;;93.72;;
25511;SDS011;13414;44.534;18.700;2023-01-23T10:51:29;143.80;;;92.65;;
25511;SDS011;13414;44.534;18.700;2023-01-23T10:54:02;145.00;;;91.15;;
25511;SDS011;13414;44.534;18.700;2023-01-23T10:56:31;141.48;;;92.55;;
25511;SDS011;13414;44.534;18.700;2023-01-23T10:59:02;141.27;;;92.88;;
25511;SDS011;13414;44.534;18.700;2023-01-23T11:01:32;136.60;;;91.53;;
25511;SDS011;13414;44.534;18.700;2023-01-23T11:04:09;142.65;;;90.15;;
25511;SDS011;13414;44.534;18.700;2023-01-23T11:06:43;133.80;;;85.07;;
25511;SDS011;13414;44.534;18.700;2023-01-23T11:09:17;136.45;;;88.43;;
25511;SDS011;13414;44.534;18.700;2023-01-23T11:11:57;135.82;;;88.68;;
25511;SDS011;13414;44.534;18.700;2023-01-23T11:14:31;133.52;;;87.93;;
25511;SDS011;13414;44.534;18.700;2023-01-23T11:17:02;124.38;;;83.78;;
25511;SDS011;13414;44.534;18.700;2023-01-23T11:19:44;125.83;;;81.37;;
25511;SDS011;13414;44.534;18.700;2023-01-23T11:22:24;126.07;;;82.25;;
25511;SDS011;13414;44.534;18.700;2023-01-23T11:24:59;132.45;;;89.10;;
25511;SDS011;13414;44.534;18.700;2023-01-23T11:27:55;142.93;;;91.93;;
25511;SDS011;13414;44.534;18.700;2023-01-23T11:33:13;134.88;;;88.90;;
25511;SDS011;13414;44.534;18.700;2023-01-23T11:35:52;139.13;;;92.82;;
25511;SDS011;13414;44.534;18.700;2023-01-23T11:38:31;144.95;;;93.97;;
25511;SDS011;13414;44.534;18.700;2023-01-23T11:41:15;143.60;;;94.45;;
25511;SDS011;13414;44.534;18.700;2023-01-23T11:43:42;146.63;;;95.68;;
25511;SDS011;13414;44.534;18.700;2023-01-23T11:46:27;151.10;;;99.45;;
25511;SDS011;13414;44.534;18.700;2023-01-23T11:49:16;151.13;;;95.97;;
25511;SDS011;13414;44.534;18.700;2023-01-23T11:51:56;142.35;;;95.05;;
25511;SDS011;13414;44.534;18.700;2023-01-23T11:54:44;142.63;;;94.90;;
25511;SDS011;13414;44.534;18.700;2023-01-23T11:57:27;147.13;;;94.13;;
25511;SDS011;13414;44.534;18.700;2023-01-23T12:00:04;146.38;;;99.47;;
25511;SDS011;13414;44.534;18.700;2023-01-23T12:05:44;156.60;;;98.10;;
25511;SDS011;13414;44.534;18.700;2023-01-23T12:08:41;154.27;;;98.57;;
25511;SDS011;13414;44.534;18.700;2023-01-23T12:11:14;156.85;;;103.88;;
25511;SDS011;13414;44.534;18.700;2023-01-23T12:13:52;153.80;;;102.20;;
25511;SDS011;13414;44.534;18.700;2023-01-23T12:16:42;164.70;;;104.90;;
25511;SDS011;13414;44.534;18.700;2023-01-23T12:19:24;151.15;;;97.53;;
25511;SDS011;13414;44.534;18.700;2023-01-23T12:22:02;152.38;;;99.60;;
25511;SDS011;13414;44.534;18.700;2023-01-23T12:24:42;160.40;;;100.55;;
25511;SDS011;13414;44.534;18.700;2023-01-23T12:27:21;156.98;;;96.50;;
25511;SDS011;13414;44.534;18.700;2023-01-23T12:30:03;175.05;;;105.38;;
25511;SDS011;13414;44.534;18.700;2023-01-23T12:32:52;165.77;;;102.90;;
25511;SDS011;13414;44.534;18.700;2023-01-23T12:35:34;164.77;;;104.75;;
25511;SDS011;13414;44.534;18.700;2023-01-23T12:38:19;178.55;;;108.82;;
25511;SDS011;13414;44.534;18.700;2023-01-23T12:40:52;185.60;;;116.35;;
25511;SDS011;13414;44.534;18.700;2023-01-23T12:43:33;232.98;;;146.60;;
25511;SDS011;13414;44.534;18.700;2023-01-23T12:46:07;221.63;;;146.82;;
25511;SDS011;13414;44.534;18.700;2023-01-23T12:48:42;248.50;;;170.13;;
25511;SDS011;13414;44.534;18.700;2023-01-23T12:51:15;257.30;;;172.90;;
25511;SDS011;13414;44.534;18.700;2023-01-23T12:53:47;247.43;;;164.52;;
25511;SDS011;13414;44.534;18.700;2023-01-23T12:56:18;233.25;;;155.30;;
25511;SDS011;13414;44.534;18.700;2023-01-23T12:58:51;233.15;;;154.63;;
25511;SDS011;13414;44.534;18.700;2023-01-23T13:01:27;237.52;;;153.15;;
25511;SDS011;13414;44.534;18.700;2023-01-23T13:04:08;224.18;;;146.45;;
25511;SDS011;13414;44.534;18.700;2023-01-23T13:09:49;205.10;;;133.07;;
25511;SDS011;13414;44.534;18.700;2023-01-23T13:12:31;176.95;;;119.22;;
25511;SDS011;13414;44.534;18.700;2023-01-23T13:17:49;188.15;;;125.30;;
25511;SDS011;13414;44.534;18.700;2023-01-23T13:20:25;175.07;;;119.05;;
25511;SDS011;13414;44.534;18.700;2023-01-23T13:23:26;192.02;;;126.10;;
25511;SDS011;13414;44.534;18.700;2023-01-23T13:29:02;280.15;;;171.80;;
25511;SDS011;13414;44.534;18.700;2023-01-23T13:31:32;325.05;;;202.82;;
25511;SDS011;13414;44.534;18.700;2023-01-23T13:34:03;311.42;;;196.90;;
25511;SDS011;13414;44.534;18.700;2023-01-23T13:40:23;265.10;;;167.70;;
25511;SDS011;13414;44.534;18.700;2023-01-23T13:42:50;277.10;;;175.65;;
25511;SDS011;13414;44.534;18.700;2023-01-23T13:45:21;252.82;;;163.40;;
25511;SDS011;13414;44.534;18.700;2023-01-23T13:51:12;196.40;;;128.77;;
25511;SDS011;13414;44.534;18.700;2023-01-23T13:53:45;199.85;;;131.02;;
25511;SDS011;13414;44.534;18.700;2023-01-23T13:56:33;212.60;;;136.80;;
25511;SDS011;13414;44.534;18.700;2023-01-23T13:59:14;187.48;;;124.50;;
25511;SDS011;13414;44.534;18.700;2023-01-23T14:01:51;187.27;;;119.32;;
25511;SDS011;13414;44.534;18.700;2023-01-23T14:04:39;217.35;;;141.35;;
25511;SDS011;13414;44.534;18.700;2023-01-23T14:07:28;241.63;;;153.25;;
25511;SDS011;13414;44.534;18.700;2023-01-23T14:10:21;354.08;;;220.85;;
25511;SDS011;13414;44.534;18.700;2023-01-23T14:13:02;367.92;;;230.75;;
25511;SDS011;13414;44.534;18.700;2023-01-23T14:15:31;308.27;;;193.05;;
25511;SDS011;13414;44.534;18.700;2023-01-23T14:18:30;257.77;;;163.88;;
25511;SDS011;13414;44.534;18.700;2023-01-23T14:21:03;244.77;;;157.52;;
25511;SDS011;13414;44.534;18.700;2023-01-23T14:23:33;197.27;;;129.48;;
25511;SDS011;13414;44.534;18.700;2023-01-23T14:26:03;192.27;;;126.75;;
25511;SDS011;13414;44.534;18.700;2023-01-23T14:28:34;172.98;;;111.43;;
25511;SDS011;13414;44.534;18.700;2023-01-23T14:31:03;167.25;;;106.63;;
25511;SDS011;13414;44.534;18.700;2023-01-23T14:33:40;164.30;;;106.95;;
25511;SDS011;13414;44.534;18.700;2023-01-23T14:36:16;133.52;;;87.10;;
25511;SDS011;13414;44.534;18.700;2023-01-23T14:38:45;115.15;;;75.53;;
25511;SDS011;13414;44.534;18.700;2023-01-23T14:41:14;108.88;;;70.05;;
25511;SDS011;13414;44.534;18.700;2023-01-23T14:43:44;119.93;;;77.10;;
25511;SDS011;13414;44.534;18.700;2023-01-23T14:46:15;114.13;;;75.13;;
25511;SDS011;13414;44.534;18.700;2023-01-23T14:48:45;140.05;;;89.53;;
25511;SDS011;13414;44.534;18.700;2023-01-23T14:51:17;186.90;;;120.82;;
25511;SDS011;13414;44.534;18.700;2023-01-23T14:53:51;201.10;;;124.07;;
25511;SDS011;13414;44.534;18.700;2023-01-23T14:56:21;195.02;;;120.40;;
25511;SDS011;13414;44.534;18.700;2023-01-23T14:58:55;196.35;;;123.22;;
25511;SDS011;13414;44.534;18.700;2023-01-23T15:01:24;172.95;;;110.30;;